KBJC/BJC METAR and TAF weather

Enter ICAO airport designator
Station Type Date Time Source
KBJC METAR 2019/12/12 11:50 UTC NOAA

KBJC 121150Z AUTO 14006KT 10SM CLR 05/M08 A2998 RMK AO2


Station Type Date Time Source
KBJC Decoded METAR 2019/12/12 11:50 UTC NOAA

Broomfield / Jeffco, CO, United States (KBJC) 39-55N 105-07W
Dec 12, 2019 - 06:50 AM EST / 2019.12.12 1150 UTC
Wind: from the SE (140 degrees) at 7 MPH (6 KT):0
Visibility: 10 mile(s):0
Sky conditions: clear
Temperature: 41 F (5 C)
Dew Point: 17 F (-8 C)
Relative Humidity: 38%
Pressure (altimeter): 29.98 in. Hg (1015 hPa)
ob: KBJC 121150Z AUTO 14006KT 10SM CLR 05/M08 A2998 RMK AO2
cycle: 12

Station Type Date Time Source
KBJC TAF 2019/12/12 12:30 UTC NOAA

TAF KBJC 121128Z 1212/1312 34010KT P6SM FEW140 BKN200
FM121600 25008KT P6SM SCT120 BKN180
FM121900 26016G24KT P6SM BKN100
FM130200 24014KT P6SM SCT120 SCT180
FM130700 27014G22KT P6SM FEW120 SCT200

Example: see airport list